Time;durP1;ratioP1;P1;durP2;ratioP2;P2;SDS_P1;SDS_P2;PMS_P1;PMS_P2;Temp;Humidity;BMP_temperature;BMP_pressure;BME280_temperature;BME280_humidity;BME280_pressure;Samples;Min_cycle;Max_cycle;Signal;HPM_P1;HPM_P2
2023/07/21 00:00:15;;;;;;;0.13;0.13;;;;;;;10.83;100.00;101122.69;5056456;28;20047;-49
2023/07/21 00:02:45;;;;;;;0.20;0.20;;;;;;;10.84;100.00;101118.38;5055547;28;20033;-48
2023/07/21 00:05:11;;;;;;;0.20;0.20;;;;;;;10.82;100.00;101114.88;5057032;28;20048;-50
2023/07/21 00:07:37;;;;;;;0.10;0.10;;;;;;;10.78;100.00;101107.88;5055332;28;20029;-51
2023/07/21 00:10:09;;;;;;;0.10;0.10;;;;;;;11.08;100.00;101108.00;5056489;28;20035;-49
2023/07/21 00:12:42;;;;;;;0.13;0.13;;;;;;;11.15;100.00;101104.75;5056068;28;20074;-50
2023/07/21 00:15:08;;;;;;;0.10;0.10;;;;;;;11.24;100.00;101103.31;5055366;28;20017;-50
2023/07/21 00:17:34;;;;;;;0.10;0.10;;;;;;;11.19;100.00;101111.81;5055777;28;20086;-51
2023/07/21 00:20:09;;;;;;;0.15;0.15;;;;;;;11.22;100.00;101104.97;5056375;28;20043;-51
2023/07/21 00:22:34;;;;;;;0.20;0.20;;;;;;;11.31;100.00;101103.56;5055146;28;20104;-51
2023/07/21 00:25:00;;;;;;;0.10;0.10;;;;;;;11.39;100.00;101097.72;5056286;28;20100;-49
2023/07/21 00:27:26;;;;;;;0.10;0.10;;;;;;;11.37;100.00;101105.44;5055614;28;20545;-50
2023/07/21 00:29:52;;;;;;;0.20;0.20;;;;;;;11.39;100.00;101108.06;5055191;28;20032;-50
2023/07/21 00:32:18;;;;;;;0.17;0.17;;;;;;;11.43;100.00;101099.59;5056122;28;20032;-50
2023/07/21 00:34:44;;;;;;;0.10;0.10;;;;;;;11.28;100.00;101100.00;5055523;28;20036;-51
2023/07/21 00:37:10;;;;;;;0.20;0.20;;;;;;;11.18;100.00;101103.97;5055530;28;20025;-49
2023/07/21 00:39:37;;;;;;;0.10;0.10;;;;;;;10.98;100.00;101105.94;5055655;28;20120;-50
2023/07/21 00:42:04;;;;;;;0.10;0.10;;;;;;;10.94;100.00;101098.94;5055326;28;20049;-47
2023/07/21 00:44:29;;;;;;;0.20;0.20;;;;;;;10.94;100.00;101104.97;5054770;28;20029;-51
2023/07/21 00:46:55;;;;;;;0.10;0.10;;;;;;;10.94;100.00;101094.66;5055534;28;20033;-50
2023/07/21 00:49:20;;;;;;;0.10;0.10;;;;;;;10.92;100.00;101098.00;5055495;28;20021;-51
2023/07/21 00:51:46;;;;;;;0.10;0.10;;;;;;;10.92;100.00;101090.28;5054945;28;20029;-49
2023/07/21 00:54:11;;;;;;;0.20;0.20;;;;;;;10.86;100.00;101096.13;5055647;28;20025;-50
2023/07/21 00:56:36;;;;;;;0.10;0.10;;;;;;;10.69;100.00;101083.56;5055022;28;20017;-48
2023/07/21 00:59:03;;;;;;;0.10;0.10;;;;;;;10.64;100.00;101089.38;5054804;28;20025;-51
2023/07/21 01:01:29;;;;;;;0.10;0.10;;;;;;;10.68;100.00;101075.78;5055257;28;20032;-48
2023/07/21 01:03:55;;;;;;;0.10;0.10;;;;;;;10.63;100.00;101082.47;5054646;28;20267;-48
2023/07/21 01:06:27;;;;;;;0.10;0.10;;;;;;;10.51;100.00;101077.81;5055152;28;20152;-50
2023/07/21 01:08:56;;;;;;;0.10;0.10;;;;;;;10.48;100.00;101072.53;5054873;28;20488;-50
2023/07/21 01:11:21;;;;;;;0.10;0.10;;;;;;;10.47;100.00;101071.66;5054308;28;20092;-49
2023/07/21 01:13:48;;;;;;;0.10;0.10;;;;;;;10.43;100.00;101064.66;5055358;28;20057;-50
2023/07/21 01:16:13;;;;;;;0.10;0.10;;;;;;;10.49;100.00;101070.00;5055341;28;20029;-50
2023/07/21 01:18:41;;;;;;;0.20;0.20;;;;;;;10.39;100.00;101070.50;5054027;28;20033;-48
2023/07/21 01:21:12;;;;;;;0.20;0.20;;;;;;;10.37;100.00;101069.59;5055169;28;20028;-51
2023/07/21 01:23:41;;;;;;;0.20;0.20;;;;;;;10.39;100.00;101065.34;5054492;28;20029;-50
2023/07/21 01:26:10;;;;;;;0.10;0.10;;;;;;;10.38;100.00;101061.06;5054284;28;20106;-50
2023/07/21 01:28:39;;;;;;;0.10;0.10;;;;;;;10.43;100.00;101059.50;5054598;28;20540;-47
2023/07/21 01:31:05;;;;;;;0.17;0.17;;;;;;;10.42;100.00;101052.59;5054764;28;20032;-49
2023/07/21 01:33:32;;;;;;;0.20;0.20;;;;;;;10.43;100.00;101050.88;5054006;28;20025;-48
2023/07/21 01:36:00;;;;;;;0.10;0.10;;;;;;;10.34;100.00;101054.88;5054761;28;20032;-50
2023/07/21 01:38:26;;;;;;;0.10;0.10;;;;;;;10.16;100.00;101056.81;5054141;28;20070;-49
2023/07/21 01:40:52;;;;;;;0.17;0.17;;;;;;;10.08;100.00;101048.81;5053794;28;20025;-49
2023/07/21 01:43:18;;;;;;;0.20;0.20;;;;;;;10.16;100.00;101051.66;5054843;28;20021;-49
2023/07/21 01:45:43;;;;;;;0.20;0.20;;;;;;;10.09;100.00;101048.00;5054115;28;20501;-50
2023/07/21 01:48:09;;;;;;;0.10;0.10;;;;;;;10.02;100.00;101046.06;5054028;28;20033;-50
2023/07/21 01:50:39;;;;;;;0.10;0.10;;;;;;;10.12;100.00;101055.84;5054171;28;20139;-49
2023/07/21 01:53:07;;;;;;;0.10;0.10;;;;;;;10.02;100.00;101044.34;5053954;28;20029;-47
2023/07/21 01:55:41;;;;;;;0.20;0.20;;;;;;;10.04;100.00;101044.38;5053953;28;20067;-51
2023/07/21 01:58:07;;;;;;;0.10;0.10;;;;;;;10.01;100.00;101036.56;5054518;28;20029;-51
2023/07/21 02:00:37;;;;;;;0.10;0.10;;;;;;;9.98;100.00;101044.16;5053268;28;20150;-50
2023/07/21 02:03:04;;;;;;;0.20;0.20;;;;;;;9.89;100.00;101037.00;5054310;28;20025;-50
2023/07/21 02:05:29;;;;;;;0.20;0.20;;;;;;;9.84;100.00;101038.56;5053894;28;20025;-50
2023/07/21 02:07:56;;;;;;;0.15;0.15;;;;;;;9.80;100.00;101034.97;5053191;28;20384;-50
2023/07/21 02:10:21;;;;;;;0.10;0.10;;;;;;;9.78;100.00;101038.31;5054245;28;20032;-51
2023/07/21 02:12:47;;;;;;;0.20;0.20;;;;;;;9.79;100.00;101034.94;5053571;28;20021;-49
2023/07/21 02:15:13;;;;;;;0.10;0.10;;;;;;;9.91;100.00;101039.63;5053545;28;20036;-50
2023/07/21 02:17:39;;;;;;;0.10;0.10;;;;;;;9.96;100.00;101030.38;5053836;28;20040;-50
2023/07/21 02:20:07;;;;;;;0.20;0.20;;;;;;;9.91;100.00;101032.78;5053260;28;20029;-50
2023/07/21 02:22:34;;;;;;;0.20;0.20;;;;;;;9.95;100.00;101029.47;5052643;28;20017;-51
2023/07/21 02:24:59;;;;;;;0.10;0.10;;;;;;;9.91;100.00;101025.06;5053663;28;20079;-50
2023/07/21 02:27:25;;;;;;;0.20;0.20;;;;;;;9.95;100.00;101028.63;5053059;28;20029;-50
2023/07/21 02:29:51;;;;;;;0.15;0.15;;;;;;;9.93;100.00;101030.25;5053354;28;20116;-50
2023/07/21 02:32:16;;;;;;;0.20;0.20;;;;;;;9.68;100.00;101027.72;5053854;28;20061;-49
2023/07/21 02:34:41;;;;;;;0.10;0.10;;;;;;;9.66;100.00;101018.19;5053112;28;20471;-50
2023/07/21 02:37:07;;;;;;;0.17;0.17;;;;;;;9.68;100.00;101022.56;5052965;28;20028;-47
2023/07/21 02:39:33;;;;;;;0.20;0.20;;;;;;;9.66;100.00;101020.75;5053207;28;20021;-48
2023/07/21 02:42:01;;;;;;;0.10;0.10;;;;;;;9.62;100.00;101019.75;5053270;28;20053;-50
2023/07/21 02:44:27;;;;;;;0.15;0.15;;;;;;;9.52;100.00;101013.38;5052659;28;20033;-49
2023/07/21 02:46:53;;;;;;;0.20;0.20;;;;;;;9.52;100.00;101018.53;5053370;28;20029;-48
2023/07/21 02:49:18;;;;;;;0.20;0.20;;;;;;;9.50;100.00;101020.19;5053106;28;20389;-50
2023/07/21 02:51:44;;;;;;;0.10;0.10;;;;;;;9.44;100.00;101019.97;5052469;28;20358;-50
2023/07/21 02:54:09;;;;;;;0.10;0.10;;;;;;;9.54;100.00;101016.91;5053208;28;20016;-50
2023/07/21 02:56:34;;;;;;;0.20;0.20;;;;;;;9.52;100.00;101008.25;5052330;28;20483;-51
2023/07/21 02:59:02;;;;;;;0.17;0.17;;;;;;;9.60;100.00;101012.81;5053203;28;20036;-50
2023/07/21 03:01:28;;;;;;;0.10;0.10;;;;;;;9.56;100.00;101015.25;5052816;28;20411;-50
2023/07/21 03:03:54;;;;;;;0.20;0.20;;;;;;;9.55;100.00;101013.53;5052220;28;20039;-48
2023/07/21 03:06:20;;;;;;;0.17;0.17;;;;;;;9.47;100.00;101014.06;5052963;28;20029;-50
2023/07/21 03:08:45;;;;;;;0.20;0.20;;;;;;;9.52;100.00;101013.38;5052954;28;20440;-50
2023/07/21 03:11:13;;;;;;;0.20;0.20;;;;;;;9.47;100.00;101014.06;5052329;28;20484;-50
2023/07/21 03:13:39;;;;;;;0.20;0.20;;;;;;;9.48;100.00;101019.25;5052572;28;20025;-50
2023/07/21 03:16:04;;;;;;;0.10;0.10;;;;;;;9.41;100.00;101018.97;5052812;28;20036;-50
2023/07/21 03:18:29;;;;;;;0.20;0.20;;;;;;;9.36;100.00;101018.78;5052053;28;20465;-49
2023/07/21 03:20:58;;;;;;;0.20;0.20;;;;;;;9.34;100.00;101023.88;5053092;28;20110;-47
2023/07/21 03:23:24;;;;;;;0.20;0.20;;;;;;;9.33;100.00;101021.25;5052491;28;20029;-49
2023/07/21 03:25:49;;;;;;;0.20;0.20;;;;;;;9.30;100.00;101021.16;5052311;28;20017;-50
2023/07/21 03:28:15;;;;;;;0.20;0.20;;;;;;;9.25;100.00;101012.38;5052662;28;20029;-50
2023/07/21 03:30:41;;;;;;;0.20;0.20;;;;;;;9.22;100.00;101013.16;5052274;28;20511;-48
2023/07/21 03:33:06;;;;;;;0.10;0.10;;;;;;;9.23;100.00;101012.28;5051975;28;20021;-50
2023/07/21 03:35:32;;;;;;;0.13;0.13;;;;;;;9.21;100.00;101007.09;5052624;28;20045;-50
2023/07/21 03:37:58;;;;;;;0.20;0.20;;;;;;;9.17;100.00;101015.53;5052570;28;20025;-50
2023/07/21 03:40:23;;;;;;;0.20;0.20;;;;;;;9.14;100.00;101015.44;5051781;28;20017;-48
2023/07/21 03:42:49;;;;;;;0.20;0.20;;;;;;;9.18;100.00;101016.38;5052677;28;20120;-48
2023/07/21 03:45:14;;;;;;;0.20;0.20;;;;;;;9.21;100.00;101004.53;5052417;28;20025;-51
2023/07/21 03:47:40;;;;;;;0.10;0.10;;;;;;;9.23;100.00;101009.72;5051676;28;20431;-51
2023/07/21 03:50:08;;;;;;;0.20;0.20;;;;;;;9.25;100.00;101022.66;5052497;28;20036;-50
2023/07/21 03:52:33;;;;;;;0.10;0.10;;;;;;;9.31;100.00;101017.72;5051999;28;20456;-47
2023/07/21 03:54:59;;;;;;;0.10;0.10;;;;;;;9.18;100.00;101012.16;5052191;28;20544;-50
2023/07/21 03:57:24;;;;;;;0.10;0.10;;;;;;;9.06;100.00;101016.81;5052111;28;20025;-45
2023/07/21 03:59:50;;;;;;;0.20;0.20;;;;;;;8.97;100.00;101012.19;5051609;28;20056;-45
2023/07/21 04:02:18;;;;;;;0.20;0.20;;;;;;;9.01;100.00;101002.91;5052421;28;20124;-47
2023/07/21 04:04:45;;;;;;;0.13;0.13;;;;;;;8.93;100.00;101010.31;5052267;28;20025;-45
2023/07/21 04:07:11;;;;;;;0.10;0.10;;;;;;;8.77;100.00;101002.84;5051691;28;20091;-50
2023/07/21 04:09:37;;;;;;;0.20;0.20;;;;;;;8.97;100.00;101001.03;5052288;28;20028;-50
2023/07/21 04:12:03;;;;;;;0.20;0.20;;;;;;;8.94;100.00;100995.78;5052317;28;20021;-49
2023/07/21 04:14:28;;;;;;;0.20;0.20;;;;;;;8.97;100.00;100993.31;5051422;28;20671;-44
2023/07/21 04:16:54;;;;;;;0.20;0.20;;;;;;;8.97;100.00;100999.31;5052251;28;20108;-46
2023/07/21 04:19:20;;;;;;;0.20;0.20;;;;;;;8.98;100.00;100992.50;5051972;28;20033;-48
2023/07/21 04:21:46;;;;;;;0.20;0.20;;;;;;;9.05;100.00;100992.81;5051302;28;20511;-50
2023/07/21 04:24:11;;;;;;;0.20;0.20;;;;;;;9.08;100.00;100989.47;5052467;28;20025;-46
2023/07/21 04:26:37;;;;;;;0.20;0.20;;;;;;;9.17;100.00;100983.81;5051739;28;20031;-47
2023/07/21 04:29:03;;;;;;;0.10;0.10;;;;;;;9.19;100.00;100985.63;5051609;28;20415;-50
2023/07/21 04:31:28;;;;;;;0.10;0.10;;;;;;;9.25;100.00;100981.53;5051828;28;20029;-45
2023/07/21 04:33:55;;;;;;;0.17;0.17;;;;;;;9.23;100.00;100987.47;5052106;28;20469;-47
2023/07/21 04:36:21;;;;;;;0.10;0.10;;;;;;;9.29;100.00;100978.22;5051782;28;20035;-50
2023/07/21 04:38:47;;;;;;;0.20;0.20;;;;;;;9.35;100.00;100978.47;5051936;28;20021;-47
2023/07/21 04:41:13;;;;;;;0.17;0.17;;;;;;;9.36;100.00;100983.66;5051773;28;20047;-50
2023/07/21 04:43:38;;;;;;;0.13;0.13;;;;;;;9.43;100.00;100977.03;5051628;28;20104;-50
2023/07/21 04:46:04;;;;;;;0.20;0.20;;;;;;;9.54;100.00;100980.88;5055639;28;20036;-50
2023/07/21 04:48:29;;;;;;;0.15;0.15;;;;;;;9.60;100.00;100980.22;5055265;28;20112;-49
2023/07/21 04:50:56;;;;;;;0.20;0.20;;;;;;;9.80;100.00;100973.22;5054984;28;20432;-49
2023/07/21 04:53:22;;;;;;;0.20;0.20;;;;;;;9.93;100.00;100974.50;5055521;28;20376;-44
2023/07/21 04:55:48;;;;;;;0.20;0.20;;;;;;;9.99;100.00;100974.72;5055475;28;20778;-50
2023/07/21 04:58:13;;;;;;;0.10;0.10;;;;;;;10.23;100.00;100978.94;5054828;28;20082;-51
2023/07/21 05:00:38;;;;;;;0.15;0.15;;;;;;;10.34;100.00;100977.59;5055287;28;20508;-51
2023/07/21 05:03:04;;;;;;;0.20;0.20;;;;;;;10.58;100.00;100976.66;5054790;28;20029;-46
2023/07/21 05:05:30;;;;;;;0.20;0.20;;;;;;;10.75;100.00;100977.16;5055234;28;20025;-48
2023/07/21 05:07:55;;;;;;;0.10;0.10;;;;;;;10.87;100.00;100980.13;5055167;28;20059;-49
2023/07/21 05:10:21;;;;;;;0.20;0.20;;;;;;;10.95;100.00;100992.38;5054618;28;20331;-46
2023/07/21 05:12:46;;;;;;;0.15;0.15;;;;;;;11.01;100.00;100983.13;5054883;28;20017;-50
2023/07/21 05:15:14;;;;;;;0.10;0.10;;;;;;;11.14;100.00;100993.81;5054800;28;20492;-50
2023/07/21 05:17:40;;;;;;;0.20;0.20;;;;;;;11.23;100.00;100982.88;5054433;28;20096;-50
2023/07/21 05:20:11;;;;;;;0.20;0.20;;;;;;;11.32;100.00;100988.31;5055248;28;20439;-51
2023/07/21 05:22:36;;;;;;;0.10;0.10;;;;;;;11.39;100.00;100984.19;5054545;28;20033;-47
2023/07/21 05:25:05;;;;;;;0.20;0.20;;;;;;;11.51;100.00;100985.41;5054381;28;20025;-50
2023/07/21 05:27:30;;;;;;;0.10;0.10;;;;;;;11.63;100.00;100984.00;5054565;28;20056;-50
2023/07/21 05:29:58;;;;;;;0.10;0.10;;;;;;;11.73;100.00;100985.13;5054647;28;20385;-47
2023/07/21 05:32:23;;;;;;;;;;;;;;;11.83;100.00;100982.84;5054650;28;20024;-48
2023/07/21 05:34:49;;;;;;;0.10;0.10;;;;;;;11.88;100.00;100982.06;5054723;28;19917;-50
2023/07/21 05:37:14;;;;;;;0.10;0.10;;;;;;;11.94;100.00;100987.41;5054541;28;20024;-49
2023/07/21 05:39:40;;;;;;;0.10;0.10;;;;;;;12.04;100.00;100989.44;5053838;28;20108;-50
2023/07/21 05:42:06;;;;;;;0.10;0.10;;;;;;;12.14;100.00;100987.97;5054471;28;20424;-50
2023/07/21 05:44:33;;;;;;;0.10;0.10;;;;;;;12.19;100.00;100987.25;5053969;28;20488;-51
2023/07/21 05:47:02;;;;;;;0.20;0.20;;;;;;;12.34;100.00;100986.75;5054037;28;20098;-50
2023/07/21 05:49:28;;;;;;;0.15;0.15;;;;;;;12.47;100.00;100981.88;5054217;28;20063;-47
2023/07/21 05:51:53;;;;;;;0.10;0.10;;;;;;;12.58;100.00;100982.13;5054455;28;20045;-50
2023/07/21 05:54:19;;;;;;;0.10;0.10;;;;;;;12.71;100.00;100985.88;5053837;28;20484;-47
2023/07/21 05:56:44;;;;;;;0.10;0.10;;;;;;;12.71;100.00;100986.75;5052976;28;20028;-50
2023/07/21 05:59:10;;;;;;;0.10;0.10;;;;;;;12.79;100.00;100995.53;5054006;28;20064;-50
2023/07/21 06:01:38;;;;;;;0.10;0.10;;;;;;;12.86;100.00;100978.47;5053355;28;20376;-51
2023/07/21 06:04:05;;;;;;;0.10;0.10;;;;;;;12.90;100.00;100993.22;5054411;28;20021;-51
2023/07/21 06:06:31;;;;;;;0.10;0.10;;;;;;;12.96;100.00;100989.88;5053020;28;20025;-51
2023/07/21 06:08:56;;;;;;;0.10;0.10;;;;;;;13.05;100.00;100987.50;5054162;28;20024;-49
2023/07/21 06:11:23;;;;;;;0.10;0.10;;;;;;;13.11;100.00;100997.97;5053834;28;20044;-50
2023/07/21 06:13:49;;;;;;;0.10;0.10;;;;;;;13.30;100.00;100995.81;5053444;28;20021;-49
2023/07/21 06:16:14;;;;;;;0.10;0.10;;;;;;;13.48;100.00;100988.44;5053949;28;20078;-50
2023/07/21 06:18:41;;;;;;;0.10;0.10;;;;;;;13.61;100.00;100988.69;5053655;28;20136;-51
2023/07/21 06:21:06;;;;;;;0.08;0.08;;;;;;;13.74;100.00;100985.47;5053529;28;20384;-46
2023/07/21 06:23:31;;;;;;;0.10;0.10;;;;;;;13.75;100.00;100987.22;5053671;28;20068;-48
2023/07/21 06:25:57;;;;;;;0.10;0.10;;;;;;;13.90;100.00;100991.78;5053461;28;20392;-51
2023/07/21 06:28:22;;;;;;;0.10;0.10;;;;;;;14.02;100.00;100991.16;5053148;28;20423;-47
2023/07/21 06:30:48;;;;;;;0.10;0.10;;;;;;;14.11;100.00;100986.13;5053629;28;20380;-50
2023/07/21 06:33:13;;;;;;;0.10;0.10;;;;;;;14.24;100.00;100983.75;5053540;28;20057;-51
2023/07/21 06:35:39;;;;;;;0.10;0.10;;;;;;;14.35;100.00;100989.13;5052833;28;20505;-49
2023/07/21 06:38:07;;;;;;;0.10;0.10;;;;;;;14.67;100.00;100987.06;5053669;28;20037;-49
2023/07/21 06:40:32;;;;;;;0.10;0.10;;;;;;;14.84;100.00;100989.03;5052803;28;20476;-50
2023/07/21 06:42:57;;;;;;;0.10;0.10;;;;;;;14.98;100.00;100983.16;5052751;28;20049;-51
2023/07/21 06:45:23;;;;;;;0.10;0.10;;;;;;;15.24;100.00;100986.97;5053209;28;20056;-46
2023/07/21 06:47:48;;;;;;;0.10;0.10;;;;;;;15.25;100.00;100980.94;5053298;28;20036;-51
2023/07/21 06:50:13;;;;;;;0.10;0.10;;;;;;;15.30;100.00;100984.47;5052898;28;20021;-50
2023/07/21 06:52:39;;;;;;;0.10;0.10;;;;;;;15.37;100.00;100975.88;5053120;28;20033;-50
2023/07/21 06:55:05;;;;;;;0.10;0.10;;;;;;;15.37;100.00;100985.41;5053119;28;20021;-50
2023/07/21 06:57:31;;;;;;;0.10;0.10;;;;;;;15.41;100.00;100982.84;5052267;28;20481;-51
2023/07/21 06:59:56;;;;;;;0.10;0.10;;;;;;;15.49;100.00;100982.94;5053335;28;20044;-48
2023/07/21 07:02:22;;;;;;;0.10;0.10;;;;;;;15.58;100.00;100984.75;5053087;28;20021;-49
2023/07/21 07:04:51;;;;;;;0.10;0.10;;;;;;;15.78;100.00;100980.66;5052596;28;20032;-50
2023/07/21 07:07:17;;;;;;;0.10;0.10;;;;;;;15.82;100.00;100978.13;5052820;28;20104;-51
2023/07/21 07:09:42;;;;;;;0.10;0.10;;;;;;;15.78;100.00;100972.84;5052036;28;20541;-48
2023/07/21 07:12:08;;;;;;;0.10;0.10;;;;;;;15.77;100.00;100978.91;5053221;28;20100;-50
2023/07/21 07:14:33;;;;;;;0.20;0.20;;;;;;;16.07;100.00;100977.47;5052375;28;20025;-51
2023/07/21 07:16:59;;;;;;;0.10;0.10;;;;;;;16.29;100.00;100982.88;5052550;28;20057;-49
2023/07/21 07:19:24;;;;;;;0.20;0.10;;;;;;;16.28;100.00;100975.91;5052645;28;20028;-45
2023/07/21 07:21:49;;;;;;;0.10;0.10;;;;;;;16.32;100.00;100977.72;5052937;28;20029;-50
2023/07/21 07:24:15;;;;;;;0.10;0.10;;;;;;;16.38;100.00;100964.72;5052261;28;20437;-48
2023/07/21 07:26:40;;;;;;;0.10;0.10;;;;;;;16.38;100.00;100972.53;5052372;28;20024;-47
2023/07/21 07:29:05;;;;;;;0.10;0.10;;;;;;;16.57;100.00;100965.75;5052731;28;20100;-45
2023/07/21 07:31:31;;;;;;;0.10;0.10;;;;;;;16.82;100.00;100965.03;5052007;28;20358;-50
2023/07/21 07:33:57;;;;;;;0.00;0.00;;;;;;;16.98;100.00;100966.88;5052881;28;20021;-51
2023/07/21 07:36:23;;;;;;;0.10;0.10;;;;;;;17.14;97.08;100978.25;5052211;28;20021;-49
2023/07/21 07:38:48;;;;;;;0.00;0.00;;;;;;;17.25;97.33;100986.13;5052231;28;20035;-50
2023/07/21 07:41:13;;;;;;;0.10;0.10;;;;;;;17.50;93.31;100979.25;5052558;28;20044;-47
2023/07/21 07:43:39;;;;;;;0.00;0.00;;;;;;;17.41;90.17;100972.25;5052275;28;20033;-50
2023/07/21 07:46:07;;;;;;;0.00;0.00;;;;;;;17.67;92.79;100973.22;5052304;28;20037;-45
2023/07/21 07:48:33;;;;;;;0.10;0.10;;;;;;;17.68;90.73;100977.56;5052124;28;20354;-46
2023/07/21 07:51:02;;;;;;;0.10;0.10;;;;;;;18.00;89.27;100982.88;5052355;28;20086;-51
2023/07/21 07:53:28;;;;;;;0.00;0.00;;;;;;;18.34;91.67;100982.88;5051571;28;20036;-49
2023/07/21 07:55:54;;;;;;;0.10;0.10;;;;;;;18.38;85.72;100981.97;5052475;28;20040;-45
2023/07/21 07:58:19;;;;;;;0.00;0.00;;;;;;;18.69;85.00;100983.69;5052537;28;20033;-50
2023/07/21 08:00:47;;;;;;;0.00;0.00;;;;;;;18.79;82.77;100980.19;5051884;28;20021;-50
2023/07/21 08:03:14;;;;;;;0.10;0.10;;;;;;;18.73;81.37;100982.81;5052411;28;20396;-51
2023/07/21 08:05:40;;;;;;;0.10;0.10;;;;;;;18.58;82.34;100981.13;5052026;28;20155;-51
2023/07/21 08:08:07;;;;;;;0.00;0.00;;;;;;;18.52;81.69;100986.34;5051699;28;20175;-51
2023/07/21 08:10:33;;;;;;;0.10;0.10;;;;;;;18.25;81.66;100982.88;5052305;28;20037;-49
2023/07/21 08:13:00;;;;;;;0.00;0.00;;;;;;;18.18;84.14;100978.50;5051824;28;20029;-51
2023/07/21 08:15:26;;;;;;;0.10;0.10;;;;;;;18.11;84.22;100982.84;5052382;28;20033;-51
2023/07/21 08:17:52;;;;;;;0.00;0.00;;;;;;;18.15;85.45;100975.91;5051942;28;20377;-45
2023/07/21 08:20:18;;;;;;;0.00;0.00;;;;;;;18.25;84.85;100977.66;5054825;28;20031;-50
2023/07/21 08:22:45;;;;;;;0.00;0.00;;;;;;;18.51;80.99;100975.00;5055854;28;20098;-48
2023/07/21 08:25:10;;;;;;;0.00;0.00;;;;;;;18.60;82.07;100976.75;5056016;28;20036;-51
2023/07/21 08:27:35;;;;;;;0.00;0.00;;;;;;;19.10;81.14;100980.16;5055279;28;20028;-46
2023/07/21 08:30:02;;;;;;;0.00;0.00;;;;;;;19.33;78.52;100984.41;5056276;28;20051;-50
2023/07/21 08:32:27;;;;;;;0.00;0.00;;;;;;;19.57;79.20;100981.69;5055387;28;20431;-50
2023/07/21 08:34:55;;;;;;;0.00;0.00;;;;;;;19.60;77.18;100986.03;5055352;28;20029;-49
2023/07/21 08:37:20;;;;;;;;;;;;;;;19.83;83.15;100985.03;5056233;28;20155;-51
2023/07/21 08:39:45;;;;;;;0.00;0.00;;;;;;;19.69;75.40;100985.06;5055459;28;19948;-50
2023/07/21 08:42:12;;;;;;;0.00;0.00;;;;;;;19.55;74.12;100988.66;5055185;28;20306;-50
2023/07/21 08:44:39;;;;;;;0.00;0.00;;;;;;;19.67;75.22;100981.63;5055682;28;20025;-49
2023/07/21 08:47:05;;;;;;;0.00;0.00;;;;;;;19.59;76.36;100989.50;5055453;28;20025;-51
2023/07/21 08:49:30;;;;;;;0.00;0.00;;;;;;;19.42;75.76;100987.84;5054895;28;20028;-51
2023/07/21 08:51:55;;;;;;;0.00;0.00;;;;;;;19.79;76.62;100988.50;5055460;28;20029;-51
2023/07/21 08:54:21;;;;;;;0.00;0.00;;;;;;;19.71;74.94;100989.41;5055572;28;20032;-49
2023/07/21 08:56:47;;;;;;;0.00;0.00;;;;;;;19.61;74.47;100987.72;5054610;28;20051;-50
2023/07/21 08:59:12;;;;;;;0.00;0.00;;;;;;;19.61;73.96;100981.66;5055560;28;20029;-49
2023/07/21 09:01:37;;;;;;;0.00;0.00;;;;;;;19.46;77.86;100987.81;5055082;28;20025;-50
2023/07/21 09:04:16;;;;;;;0.00;0.00;;;;;;;19.48;76.37;100996.53;5055013;28;20028;-50
2023/07/21 09:06:41;;;;;;;0.00;0.00;;;;;;;19.49;73.67;100986.06;5054880;28;20087;-51
2023/07/21 09:09:16;;;;;;;0.00;0.00;;;;;;;19.60;76.02;100982.50;5055680;28;20029;-51
2023/07/21 09:11:42;;;;;;;0.10;0.10;;;;;;;19.72;73.10;100983.31;5055004;28;20025;-50
2023/07/21 09:14:07;;;;;;;0.00;0.00;;;;;;;19.70;72.06;100982.47;5055070;28;20120;-46
2023/07/21 09:16:33;;;;;;;0.00;0.00;;;;;;;19.73;73.93;100984.19;5054276;28;20017;-51
2023/07/21 09:18:58;;;;;;;0.00;0.00;;;;;;;19.88;70.92;100981.53;5055090;28;20476;-51
2023/07/21 09:21:24;;;;;;;0.00;0.00;;;;;;;20.16;72.96;100983.06;5054750;28;20029;-51
2023/07/21 09:23:50;;;;;;;0.00;0.00;;;;;;;20.48;69.81;100984.53;5054382;28;20067;-51
2023/07/21 09:26:21;;;;;;;0.10;0.10;;;;;;;20.79;71.61;100981.66;5055008;28;20061;-49
2023/07/21 09:28:46;;;;;;;0.00;0.00;;;;;;;20.81;63.01;100979.84;5054361;28;20458;-50
2023/07/21 09:31:13;;;;;;;0.00;0.00;;;;;;;20.90;62.01;100974.50;5054264;28;20028;-51
2023/07/21 09:33:43;;;;;;;0.00;0.00;;;;;;;20.85;61.74;100976.31;5054458;28;20469;-51
2023/07/21 09:36:11;;;;;;;0.00;0.00;;;;;;;20.98;63.19;100966.56;5054846;28;20040;-51
2023/07/21 09:38:38;;;;;;;0.00;0.00;;;;;;;21.03;60.13;100965.63;5054165;28;20025;-51
2023/07/21 09:41:09;;;;;;;0.00;0.00;;;;;;;21.60;59.00;100961.44;5054651;28;20080;-49
2023/07/21 09:43:34;;;;;;;0.00;0.00;;;;;;;21.52;57.44;100968.50;5054221;28;20035;-51
2023/07/21 09:46:02;;;;;;;0.00;0.00;;;;;;;21.86;54.70;100960.19;5053899;28;20447;-51
2023/07/21 09:48:28;;;;;;;;;;;;;;;22.12;58.36;100957.13;5054604;28;20071;-51
2023/07/21 09:50:57;;;;;;;0.00;0.00;;;;;;;21.72;56.24;100955.13;5054496;28;19919;-51
2023/07/21 09:53:25;;;;;;;0.00;0.00;;;;;;;21.67;56.29;100951.72;5053726;28;20082;-50
2023/07/21 09:55:52;;;;;;;0.00;0.00;;;;;;;21.89;57.59;100962.75;5054227;28;20027;-50
2023/07/21 09:58:22;;;;;;;0.00;0.00;;;;;;;22.42;55.55;100948.78;5054392;28;20094;-51
2023/07/21 10:00:48;;;;;;;0.00;0.00;;;;;;;22.72;55.29;100954.34;5054146;28;20025;-49
2023/07/21 10:03:14;;;;;;;0.00;0.00;;;;;;;23.06;55.00;100953.66;5053930;28;20526;-50
2023/07/21 10:05:40;;;;;;;0.00;0.00;;;;;;;23.09;52.60;100953.63;5053489;28;20129;-49
2023/07/21 10:08:09;;;;;;;0.00;0.00;;;;;;;22.92;51.77;100953.94;5054090;28;20033;-49
2023/07/21 10:10:35;;;;;;;0.00;0.00;;;;;;;22.78;51.23;100949.84;5053674;28;20032;-50
2023/07/21 10:13:05;;;;;;;0.00;0.00;;;;;;;22.30;52.54;100955.94;5053449;28;20060;-50
2023/07/21 10:15:32;;;;;;;0.00;0.00;;;;;;;21.74;56.94;100955.97;5053698;28;20488;-49
2023/07/21 10:18:10;;;;;;;0.00;0.00;;;;;;;21.35;60.65;100959.09;5053695;28;20031;-49
2023/07/21 10:20:42;;;;;;;0.00;0.00;;;;;;;21.09;60.97;100964.69;5053239;28;20021;-50
2023/07/21 10:23:09;;;;;;;0.00;0.00;;;;;;;21.07;61.46;100957.72;5054257;28;20074;-49
2023/07/21 10:26:08;;;;;;;0.00;0.00;;;;;;;21.05;63.49;100963.84;5053373;28;20461;-48
2023/07/21 10:28:35;;;;;;;0.00;0.00;;;;;;;20.82;61.63;100955.41;5030244;28;20036;-49
2023/07/21 10:31:25;;;;;;;0.00;0.00;;;;;;;20.91;62.95;100957.91;5053772;28;20036;-50
2023/07/21 10:34:11;;;;;;;0.00;0.00;;;;;;;21.10;63.41;100955.94;5053129;28;20040;-49
2023/07/21 10:36:48;;;;;;;0.00;0.00;;;;;;;21.67;61.33;100955.19;5053724;28;20024;-46
2023/07/21 10:39:16;;;;;;;0.00;0.00;;;;;;;21.94;58.71;100946.94;5053679;28;20034;-50
2023/07/21 10:41:45;;;;;;;0.00;0.00;;;;;;;21.71;59.05;100951.63;5052153;28;20092;-50
2023/07/21 10:44:11;;;;;;;0.00;0.00;;;;;;;21.52;55.38;100953.66;5053589;28;20029;-49
2023/07/21 10:46:44;;;;;;;0.00;0.00;;;;;;;21.27;57.46;100953.09;5052881;28;20108;-50
2023/07/21 10:49:10;;;;;;;0.00;0.00;;;;;;;21.02;58.46;100952.56;5053180;28;20033;-50
2023/07/21 10:51:44;;;;;;;0.00;0.00;;;;;;;20.66;59.25;100950.31;5053381;28;20032;-51
2023/07/21 10:54:11;;;;;;;0.00;0.00;;;;;;;20.37;60.85;100958.44;5053370;28;20060;-49
2023/07/21 10:56:41;;;;;;;0.00;0.00;;;;;;;20.00;63.59;100959.63;5052732;28;20017;-51
2023/07/21 10:59:08;;;;;;;0.00;0.00;;;;;;;19.54;64.29;100959.91;5053030;28;20044;-48
2023/07/21 11:02:04;;;;;;;0.10;0.10;;;;;;;19.39;67.47;100968.69;5053104;28;20027;-46
2023/07/21 11:04:33;;;;;;;0.00;0.00;;;;;;;18.92;66.83;100953.19;5050729;28;20547;-49
2023/07/21 11:06:59;;;;;;;0.00;0.00;;;;;;;18.44;70.43;100962.88;5052748;28;20112;-50
2023/07/21 11:09:26;;;;;;;0.03;0.03;;;;;;;18.07;73.88;100973.31;5052169;28;20082;-48
2023/07/21 11:11:57;;;;;;;0.00;0.00;;;;;;;17.81;79.67;100981.94;5053283;28;20047;-45
2023/07/21 11:14:24;;;;;;;0.03;0.03;;;;;;;17.52;82.42;100980.13;5052733;28;20028;-45
2023/07/21 11:16:51;;;;;;;0.00;0.00;;;;;;;17.18;83.87;100979.97;5052601;28;20056;-46
2023/07/21 11:19:17;;;;;;;0.10;0.10;;;;;;;16.62;86.58;101010.03;5053035;28;20079;-48